createdAt,value
2018-10-18T00:01:06.300Z,9.10
2018-10-18T00:03:34.205Z,9.10
2018-10-18T00:06:01.684Z,9.10
2018-10-18T00:08:29.144Z,9.10
2018-10-18T00:10:56.644Z,9.00
2018-10-18T00:13:24.138Z,9.00
2018-10-18T00:15:51.636Z,9.00
2018-10-18T00:18:19.131Z,9.00
2018-10-18T00:20:46.642Z,9.00
2018-10-18T00:23:14.141Z,9.00
2018-10-18T00:25:41.631Z,9.00
2018-10-18T00:28:09.118Z,9.00
2018-10-18T00:30:36.615Z,9.00
2018-10-18T00:33:04.438Z,9.00
2018-10-18T00:35:31.930Z,9.00
2018-10-18T00:37:59.471Z,8.90
2018-10-18T00:40:26.914Z,8.90
2018-10-18T00:42:54.414Z,8.80
2018-10-18T00:45:21.956Z,8.80
2018-10-18T00:47:49.490Z,8.80
2018-10-18T00:50:17.042Z,8.80
2018-10-18T00:52:44.534Z,8.80
2018-10-18T00:55:12.063Z,8.80
2018-10-18T00:57:40.418Z,8.80
2018-10-18T01:00:08.846Z,8.70
2018-10-18T01:02:36.349Z,8.80
2018-10-18T01:05:03.892Z,8.80
2018-10-18T01:07:31.447Z,8.80
2018-10-18T01:09:58.950Z,8.80
2018-10-18T01:12:26.615Z,8.80
2018-10-18T01:14:54.012Z,8.70
2018-10-18T01:17:21.547Z,8.70
2018-10-18T01:19:49.054Z,8.70
2018-10-18T01:22:16.576Z,8.70
2018-10-18T01:24:44.096Z,8.70
2018-10-18T01:27:11.608Z,8.60
2018-10-18T01:29:39.170Z,8.60
2018-10-18T01:32:06.735Z,8.50
2018-10-18T01:34:34.199Z,8.60
2018-10-18T01:37:01.734Z,8.50
2018-10-18T01:39:29.259Z,8.50
2018-10-18T01:41:56.816Z,8.50
2018-10-18T01:44:24.323Z,8.50
2018-10-18T01:46:51.887Z,8.40
2018-10-18T01:49:19.383Z,8.40
2018-10-18T01:51:46.915Z,8.50
2018-10-18T01:54:14.492Z,8.40
2018-10-18T01:56:41.947Z,8.40
2018-10-18T01:59:09.442Z,8.40
2018-10-18T02:01:36.973Z,8.40
2018-10-18T02:04:05.186Z,8.40
2018-10-18T02:06:32.724Z,8.40
2018-10-18T02:09:00.255Z,8.40
2018-10-18T02:11:27.765Z,8.40
2018-10-18T02:13:55.285Z,8.50
2018-10-18T02:16:22.786Z,8.40
2018-10-18T02:18:50.315Z,8.40
2018-10-18T02:21:17.810Z,8.40
2018-10-18T02:23:45.322Z,8.40
2018-10-18T02:26:12.813Z,8.40
2018-10-18T02:28:40.330Z,8.40
2018-10-18T02:31:07.823Z,8.30
2018-10-18T02:33:35.338Z,8.40
2018-10-18T02:36:02.940Z,8.30
2018-10-18T02:38:30.456Z,8.30
2018-10-18T02:40:57.962Z,8.30
2018-10-18T02:43:25.478Z,8.30
2018-10-18T02:45:52.975Z,8.30
2018-10-18T02:48:20.626Z,8.20
2018-10-18T02:50:48.032Z,8.20
2018-10-18T02:53:15.555Z,8.30
2018-10-18T02:55:43.058Z,8.20
2018-10-18T02:58:10.574Z,8.20
2018-10-18T03:00:38.082Z,8.20
2018-10-18T03:03:05.598Z,8.20
2018-10-18T03:05:33.116Z,8.20
2018-10-18T03:08:00.847Z,8.20
2018-10-18T03:10:28.367Z,8.20
2018-10-18T03:12:55.869Z,8.20
2018-10-18T03:15:23.391Z,8.10
2018-10-18T03:17:50.914Z,8.10
2018-10-18T03:20:18.425Z,8.10
2018-10-18T03:22:45.934Z,8.10
2018-10-18T03:25:13.437Z,8.00
2018-10-18T03:27:41.349Z,8.00
2018-10-18T03:30:09.176Z,8.00
2018-10-18T03:32:36.569Z,8.00
2018-10-18T03:35:05.336Z,8.00
2018-10-18T03:37:32.870Z,8.00
2018-10-18T03:40:00.387Z,8.00
2018-10-18T03:42:27.904Z,8.00
2018-10-18T03:44:55.410Z,8.00
2018-10-18T03:47:22.987Z,8.00
2018-10-18T03:49:50.487Z,8.00
2018-10-18T03:52:17.978Z,7.90
2018-10-18T03:54:45.477Z,7.90
2018-10-18T03:57:12.958Z,7.90
2018-10-18T03:59:40.580Z,7.90
2018-10-18T04:02:07.942Z,7.90
2018-10-18T04:04:35.435Z,7.90
2018-10-18T04:07:02.964Z,7.90
2018-10-18T04:09:30.464Z,8.00
2018-10-18T04:11:57.989Z,8.00
2018-10-18T04:14:25.906Z,7.90
2018-10-18T04:16:53.410Z,7.90
2018-10-18T04:19:20.901Z,7.90
2018-10-18T04:21:48.394Z,7.90
2018-10-18T04:24:15.971Z,7.80
2018-10-18T04:26:43.386Z,7.80
2018-10-18T04:29:10.887Z,7.80
2018-10-18T04:31:38.407Z,7.80
2018-10-18T04:34:05.907Z,7.80
2018-10-18T04:36:33.403Z,7.80
2018-10-18T04:39:00.897Z,7.80
2018-10-18T04:41:28.686Z,7.80
2018-10-18T04:43:56.189Z,7.80
2018-10-18T04:46:23.722Z,7.80
2018-10-18T04:48:51.256Z,7.80
2018-10-18T04:51:18.727Z,7.90
2018-10-18T04:53:46.214Z,7.90
2018-10-18T04:56:13.718Z,7.90
2018-10-18T04:58:41.215Z,8.00
2018-10-18T05:01:08.818Z,8.00
2018-10-18T05:03:36.218Z,8.00
2018-10-18T05:06:04.719Z,8.00
2018-10-18T05:08:32.237Z,8.00
2018-10-18T05:10:59.742Z,8.00
2018-10-18T05:13:27.246Z,8.00
2018-10-18T05:15:54.739Z,8.00
2018-10-18T05:18:22.574Z,8.00
2018-10-18T05:20:50.066Z,8.00
2018-10-18T05:23:17.575Z,8.10
2018-10-18T05:25:45.811Z,8.10
2018-10-18T05:28:13.326Z,8.10
2018-10-18T05:30:40.815Z,8.20
2018-10-18T05:33:08.328Z,8.20
2018-10-18T05:35:35.840Z,8.20
2018-10-18T05:38:03.429Z,8.20
2018-10-18T05:40:30.930Z,8.20
2018-10-18T05:43:03.969Z,8.20
2018-10-18T05:45:31.500Z,8.20
2018-10-18T05:47:59.027Z,8.20
2018-10-18T05:50:26.559Z,8.20
2018-10-18T05:52:54.074Z,8.10
2018-10-18T05:55:21.585Z,8.10
2018-10-18T05:57:49.078Z,8.10
2018-10-18T06:00:17.670Z,8.10
2018-10-18T06:02:45.433Z,8.20
2018-10-18T06:05:14.956Z,8.20
2018-10-18T06:07:43.123Z,8.20
2018-10-18T06:10:28.296Z,8.20
2018-10-18T06:12:55.870Z,8.30
2018-10-18T06:15:23.648Z,8.30
2018-10-18T06:17:51.382Z,8.30
2018-10-18T06:20:19.759Z,8.40
2018-10-18T06:22:47.293Z,8.40
2018-10-18T06:25:15.464Z,8.50
2018-10-18T06:27:42.928Z,8.60
2018-10-18T06:30:12.983Z,8.70
2018-10-18T06:36:01.415Z,8.90
2018-10-18T06:38:28.943Z,9.00
2018-10-18T06:40:56.471Z,9.10
2018-10-18T06:43:24.047Z,9.20
2018-10-18T06:45:51.563Z,9.30
2018-10-18T06:48:19.079Z,9.40
2018-10-18T06:50:46.607Z,9.50
2018-10-18T06:53:14.121Z,9.70
2018-10-18T06:55:41.754Z,9.80
2018-10-18T06:58:10.051Z,10.00
2018-10-18T07:00:41.166Z,10.20
2018-10-18T07:03:08.683Z,10.40
2018-10-18T07:05:42.310Z,10.50
2018-10-18T07:08:09.815Z,10.70
2018-10-18T07:10:54.431Z,10.90
2018-10-18T07:13:21.942Z,11.10
2018-10-18T07:15:49.467Z,11.30
2018-10-18T07:18:17.124Z,11.50
2018-10-18T07:20:44.495Z,11.70
2018-10-18T07:23:12.007Z,11.90
2018-10-18T07:25:46.287Z,12.10
2018-10-18T07:28:13.806Z,12.20
2018-10-18T07:30:41.314Z,12.40
2018-10-18T07:33:08.822Z,12.60
2018-10-18T07:35:36.351Z,12.70
2018-10-18T07:38:03.886Z,12.90
2018-10-18T07:40:31.407Z,13.00
2018-10-18T07:42:58.927Z,13.10
2018-10-18T07:45:26.426Z,13.20
2018-10-18T07:47:53.933Z,13.30
2018-10-18T07:50:21.459Z,13.30
2018-10-18T07:52:48.965Z,13.40
2018-10-18T07:55:16.462Z,13.40
2018-10-18T07:57:43.946Z,13.50
2018-10-18T08:00:12.910Z,13.50
2018-10-18T08:02:41.056Z,13.60
2018-10-18T08:05:09.241Z,13.60
2018-10-18T08:07:37.009Z,13.70
2018-10-18T08:10:07.469Z,13.70
2018-10-18T08:12:34.987Z,13.80
2018-10-18T08:15:02.482Z,13.80
2018-10-18T08:17:29.994Z,13.90
2018-10-18T08:19:57.487Z,13.90
2018-10-18T08:22:25.002Z,14.00
2018-10-18T08:24:52.500Z,14.00
2018-10-18T08:27:19.995Z,14.20
2018-10-18T08:29:47.495Z,14.20
2018-10-18T08:32:15.047Z,14.30
2018-10-18T08:34:42.545Z,14.40
2018-10-18T08:37:10.130Z,14.50
2018-10-18T08:39:37.574Z,14.60
2018-10-18T08:42:05.342Z,14.70
2018-10-18T08:44:32.923Z,14.80
2018-10-18T08:47:00.379Z,14.80
2018-10-18T08:49:27.871Z,14.90
2018-10-18T08:51:55.370Z,15.00
2018-10-18T08:54:22.886Z,15.10
2018-10-18T08:56:50.383Z,15.20
2018-10-18T08:59:17.908Z,15.40
2018-10-18T09:01:45.596Z,15.50
2018-10-18T09:04:12.917Z,15.60
2018-10-18T09:06:40.405Z,15.70
2018-10-18T09:09:08.486Z,15.80
2018-10-18T09:11:36.120Z,16.00
2018-10-18T09:14:03.786Z,16.20
2018-10-18T09:16:31.454Z,16.30
2018-10-18T09:18:58.958Z,16.50
2018-10-18T09:21:26.452Z,16.60
2018-10-18T09:23:54.006Z,16.80
2018-10-18T09:26:21.446Z,16.90
2018-10-18T09:28:48.958Z,17.00
2018-10-18T09:31:16.518Z,17.10
2018-10-18T09:33:43.950Z,17.20
2018-10-18T09:36:11.479Z,17.40
2018-10-18T09:38:38.966Z,17.60
2018-10-18T09:41:06.475Z,17.80
2018-10-18T09:43:33.986Z,18.00
2018-10-18T09:46:01.494Z,18.20
2018-10-18T09:48:28.986Z,18.40
2018-10-18T09:50:56.745Z,18.60
2018-10-18T09:53:24.018Z,18.80
2018-10-18T09:55:51.538Z,19.00
2018-10-18T09:58:19.025Z,19.20
2018-10-18T10:00:52.284Z,19.50
2018-10-18T10:03:20.320Z,19.70
2018-10-18T10:05:47.847Z,19.90
2018-10-18T10:08:15.343Z,20.00
2018-10-18T10:10:42.858Z,20.10
2018-10-18T10:13:10.446Z,20.20
2018-10-18T10:15:37.851Z,20.40
2018-10-18T10:18:05.359Z,20.60
2018-10-18T10:20:32.885Z,20.90
2018-10-18T10:23:00.387Z,21.00
2018-10-18T10:25:27.890Z,21.20
2018-10-18T10:27:56.006Z,21.40
2018-10-18T10:30:23.751Z,21.40
2018-10-18T10:32:51.234Z,21.50
2018-10-18T10:35:18.787Z,21.60
2018-10-18T10:37:46.198Z,21.70
2018-10-18T10:40:13.783Z,21.80
2018-10-18T10:42:41.890Z,21.90
2018-10-18T10:45:10.518Z,22.10
2018-10-18T10:47:37.987Z,22.20
2018-10-18T10:50:06.325Z,22.30
2018-10-18T10:52:33.809Z,22.30
2018-10-18T10:55:01.302Z,22.20
2018-10-18T10:57:29.026Z,22.10
2018-10-18T10:59:56.490Z,22.20
2018-10-18T11:02:24.011Z,22.30
2018-10-18T11:04:51.518Z,22.30
2018-10-18T11:07:19.050Z,22.20
2018-10-18T11:09:46.622Z,22.20
2018-10-18T11:12:14.115Z,22.20
2018-10-18T11:14:41.566Z,22.40
2018-10-18T11:17:09.124Z,22.60
2018-10-18T11:19:36.572Z,22.80
2018-10-18T11:22:05.025Z,22.90
2018-10-18T11:24:32.565Z,22.90
2018-10-18T11:27:00.099Z,23.10
2018-10-18T11:29:27.567Z,23.20
2018-10-18T11:31:55.070Z,23.10
2018-10-18T11:34:22.671Z,23.10
2018-10-18T11:36:50.138Z,23.10
2018-10-18T11:39:17.630Z,23.00
2018-10-18T11:41:45.140Z,22.90
2018-10-18T11:44:12.741Z,22.80
2018-10-18T11:46:40.260Z,22.60
2018-10-18T11:49:07.805Z,22.40
2018-10-18T11:51:35.389Z,22.40
2018-10-18T11:54:02.971Z,22.60
2018-10-18T11:56:30.521Z,22.70
2018-10-18T11:58:58.056Z,22.90
2018-10-18T12:01:25.791Z,22.90
2018-10-18T12:03:53.339Z,22.90
2018-10-18T12:06:20.892Z,22.90
2018-10-18T12:08:48.439Z,22.90
2018-10-18T12:11:16.210Z,22.90
2018-10-18T12:13:43.603Z,22.90
2018-10-18T12:16:11.143Z,22.70
2018-10-18T12:18:38.692Z,22.60
2018-10-18T12:21:06.236Z,22.50
2018-10-18T12:23:33.803Z,22.50
2018-10-18T12:26:01.393Z,22.40
2018-10-18T12:28:28.936Z,22.40
2018-10-18T12:30:56.504Z,22.40
2018-10-18T12:33:24.064Z,22.30
2018-10-18T12:35:51.600Z,22.20
2018-10-18T12:38:19.144Z,22.20
2018-10-18T12:40:46.733Z,22.20
2018-10-18T12:43:14.243Z,22.20
2018-10-18T12:45:41.751Z,22.00
2018-10-18T12:48:09.490Z,22.00
2018-10-18T12:50:36.914Z,21.90
2018-10-18T12:53:04.437Z,21.80
2018-10-18T12:55:31.956Z,21.70
2018-10-18T12:57:59.474Z,21.60
2018-10-18T13:00:26.987Z,21.60
2018-10-18T13:02:54.488Z,21.50
2018-10-18T13:05:21.997Z,21.60
2018-10-18T13:07:49.509Z,21.60
2018-10-18T13:10:17.032Z,21.60
2018-10-18T13:12:44.556Z,21.60
2018-10-18T13:15:12.069Z,21.50
2018-10-18T13:17:39.809Z,21.50
2018-10-18T13:20:08.581Z,21.50
2018-10-18T13:22:36.255Z,21.50
2018-10-18T13:25:04.860Z,21.60
2018-10-18T13:27:32.380Z,21.60
2018-10-18T13:29:59.909Z,21.60
2018-10-18T13:32:27.565Z,21.60
2018-10-18T13:34:55.125Z,21.60
2018-10-18T13:37:22.643Z,21.60
2018-10-18T13:39:50.147Z,21.60
2018-10-18T13:42:17.699Z,21.50
2018-10-18T13:44:45.196Z,21.50
2018-10-18T13:47:12.712Z,21.50
2018-10-18T13:49:40.225Z,21.40
2018-10-18T13:52:07.722Z,21.30
2018-10-18T13:54:35.253Z,21.10
2018-10-18T13:57:02.815Z,20.90
2018-10-18T13:59:47.974Z,20.80
2018-10-18T14:02:15.532Z,20.60
2018-10-18T14:04:42.999Z,20.50
2018-10-18T14:07:10.755Z,20.40
2018-10-18T14:09:38.276Z,20.30
2018-10-18T14:12:05.809Z,20.20
2018-10-18T14:14:33.323Z,20.10
2018-10-18T14:17:00.894Z,20.00
2018-10-18T14:19:28.380Z,19.90
2018-10-18T14:21:56.959Z,19.80
2018-10-18T14:24:24.480Z,19.60
2018-10-18T14:26:51.989Z,19.50
2018-10-18T14:29:19.587Z,19.40
2018-10-18T14:31:47.677Z,19.30
2018-10-18T14:34:15.199Z,19.20
2018-10-18T14:36:42.708Z,19.20
2018-10-18T14:39:10.332Z,19.00
2018-10-18T14:41:38.092Z,18.90
2018-10-18T14:44:05.819Z,18.80
2018-10-18T14:46:33.406Z,18.70
2018-10-18T14:49:00.980Z,18.60
2018-10-18T14:51:28.649Z,18.50
2018-10-18T14:53:56.196Z,18.40
2018-10-18T14:56:24.008Z,18.20
2018-10-18T14:58:51.596Z,18.10
2018-10-18T15:01:22.665Z,18.00
2018-10-18T15:03:57.888Z,17.80
2018-10-18T15:06:50.060Z,17.70
2018-10-18T15:09:25.689Z,17.60
2018-10-18T15:12:14.476Z,17.40
2018-10-18T15:14:42.044Z,17.30
2018-10-18T15:17:09.679Z,17.20
2018-10-18T15:22:41.807Z,17.00
2018-10-18T15:25:10.467Z,16.80
2018-10-18T15:27:38.474Z,16.70
2018-10-18T15:30:07.504Z,16.60
2018-10-18T15:32:35.228Z,16.50
2018-10-18T15:35:02.797Z,16.40
2018-10-18T15:37:30.326Z,16.30
2018-10-18T15:39:57.913Z,16.10
2018-10-18T15:42:25.467Z,15.90
2018-10-18T15:44:53.003Z,15.80
2018-10-18T15:47:20.626Z,15.70
2018-10-18T15:49:48.032Z,15.60
2018-10-18T15:52:15.556Z,15.40
2018-10-18T15:54:43.123Z,15.30
2018-10-18T15:57:10.682Z,15.20
2018-10-18T15:59:38.132Z,15.10
2018-10-18T16:02:05.726Z,15.00
2018-10-18T16:04:33.247Z,15.00
2018-10-18T16:07:00.748Z,15.00
2018-10-18T16:09:28.277Z,15.00
2018-10-18T16:11:55.781Z,14.90
2018-10-18T16:14:23.319Z,14.90
2018-10-18T16:16:50.820Z,14.80
2018-10-18T16:19:18.328Z,14.80
2018-10-18T16:21:45.836Z,14.80
2018-10-18T16:24:13.418Z,14.70
2018-10-18T16:26:40.874Z,14.70
2018-10-18T16:29:08.454Z,14.70
2018-10-18T16:31:35.899Z,14.60
2018-10-18T16:34:03.819Z,14.60
2018-10-18T16:36:31.327Z,14.60
2018-10-18T16:38:58.835Z,14.60
2018-10-18T16:41:26.667Z,14.60
2018-10-18T16:43:53.989Z,14.60
2018-10-18T16:46:21.491Z,14.50
2018-10-18T16:48:48.996Z,14.50
2018-10-18T16:51:16.540Z,14.60
2018-10-18T16:53:44.068Z,14.50
2018-10-18T16:56:11.602Z,14.60
2018-10-18T16:58:39.092Z,14.50
2018-10-18T17:01:06.649Z,14.60
2018-10-18T17:03:34.160Z,14.50
2018-10-18T17:06:01.784Z,14.50
2018-10-18T17:08:29.207Z,14.50
2018-10-18T17:10:56.777Z,14.50
2018-10-18T17:13:24.284Z,14.50
2018-10-18T17:15:51.863Z,14.50
2018-10-18T17:18:19.412Z,14.50
2018-10-18T17:20:47.116Z,14.50
2018-10-18T17:23:14.481Z,14.50
2018-10-18T17:25:41.995Z,14.50
2018-10-18T17:28:09.501Z,14.50
2018-10-18T17:30:37.094Z,14.50
2018-10-18T17:33:04.667Z,14.40
2018-10-18T17:35:32.172Z,14.50
2018-10-18T17:37:59.674Z,14.40
2018-10-18T17:40:27.258Z,14.40
2018-10-18T17:42:54.779Z,14.40
2018-10-18T17:45:22.286Z,14.40
2018-10-18T17:47:49.809Z,14.40
2018-10-18T17:50:17.431Z,14.30
2018-10-18T17:52:59.023Z,14.40
2018-10-18T17:55:26.537Z,14.30
2018-10-18T17:57:54.080Z,14.30
2018-10-18T18:00:21.611Z,14.30
2018-10-18T18:02:59.924Z,14.30
2018-10-18T18:05:27.464Z,14.30
2018-10-18T18:07:55.056Z,14.30
2018-10-18T18:10:26.048Z,14.30
2018-10-18T18:12:53.559Z,14.30
2018-10-18T18:15:21.089Z,14.30
2018-10-18T18:17:48.673Z,14.30
2018-10-18T18:20:16.180Z,14.30
2018-10-18T18:22:43.731Z,14.30
2018-10-18T18:25:11.885Z,14.30
2018-10-18T18:27:39.521Z,14.30
2018-10-18T18:30:10.756Z,14.30
2018-10-18T18:32:46.623Z,14.30
2018-10-18T18:35:14.143Z,14.30
2018-10-18T18:37:41.647Z,14.30
2018-10-18T18:40:09.711Z,14.30
2018-10-18T18:42:37.895Z,14.30
2018-10-18T18:45:11.234Z,14.30
2018-10-18T18:47:38.667Z,14.30
2018-10-18T18:50:06.513Z,14.30
2018-10-18T18:52:34.008Z,14.30
2018-10-18T18:55:01.533Z,14.30
2018-10-18T18:57:29.043Z,14.30
2018-10-18T18:59:56.540Z,14.30
2018-10-18T19:02:24.040Z,14.30
2018-10-18T19:04:51.557Z,14.30
2018-10-18T19:07:19.067Z,14.30
2018-10-18T19:09:46.572Z,14.30
2018-10-18T19:12:14.085Z,14.30
2018-10-18T19:14:41.600Z,14.30
2018-10-18T19:17:09.112Z,14.30
2018-10-18T19:19:37.328Z,14.30
2018-10-18T19:22:05.568Z,14.30
2018-10-18T19:24:33.060Z,14.30
2018-10-18T19:27:00.596Z,14.30
2018-10-18T19:29:28.095Z,14.30
2018-10-18T19:31:55.651Z,14.30
2018-10-18T19:34:23.116Z,14.30
2018-10-18T19:36:50.620Z,14.30
2018-10-18T19:39:18.120Z,14.40
2018-10-18T19:41:45.636Z,14.40
2018-10-18T19:44:13.240Z,14.40
2018-10-18T19:46:40.705Z,14.40
2018-10-18T19:49:08.188Z,14.40
2018-10-18T19:51:35.708Z,14.40
2018-10-18T19:54:03.228Z,14.40
2018-10-18T19:56:30.732Z,14.40
2018-10-18T19:58:58.243Z,14.40
2018-10-18T20:01:25.783Z,14.40
2018-10-18T20:03:53.316Z,14.40
2018-10-18T20:06:21.068Z,14.40
2018-10-18T20:08:48.581Z,14.40
2018-10-18T20:11:16.107Z,14.40
2018-10-18T20:13:43.607Z,14.40
2018-10-18T20:16:11.128Z,14.40
2018-10-18T20:18:38.680Z,14.40
2018-10-18T20:21:06.350Z,14.40
2018-10-18T20:23:33.848Z,14.40
2018-10-18T20:26:02.723Z,14.30
2018-10-18T20:28:36.630Z,14.30
2018-10-18T20:31:04.487Z,14.30
2018-10-18T20:33:32.001Z,14.30
2018-10-18T20:35:59.563Z,14.30
2018-10-18T20:38:27.033Z,14.30
2018-10-18T20:40:54.588Z,14.20
2018-10-18T20:43:24.252Z,14.20
2018-10-18T20:45:51.855Z,14.30
2018-10-18T20:48:19.368Z,14.30
2018-10-18T20:50:46.921Z,14.20
2018-10-18T20:53:14.526Z,14.20
2018-10-18T20:55:42.031Z,14.20
2018-10-18T20:58:09.581Z,14.20
2018-10-18T21:00:37.151Z,14.20
2018-10-18T21:03:04.984Z,14.20
2018-10-18T21:05:32.534Z,14.20
2018-10-18T21:08:00.067Z,14.20
2018-10-18T21:10:28.625Z,14.20
2018-10-18T21:12:56.187Z,14.20
2018-10-18T21:15:34.173Z,14.20
2018-10-18T21:18:01.773Z,14.20
2018-10-18T21:20:29.304Z,14.20
2018-10-18T21:22:56.877Z,14.20
2018-10-18T21:25:24.409Z,14.30
2018-10-18T21:27:52.046Z,14.20
2018-10-18T21:30:19.535Z,14.20
2018-10-18T21:32:47.106Z,14.20
2018-10-18T21:35:14.735Z,14.30
2018-10-18T21:37:42.236Z,14.30
2018-10-18T21:40:09.777Z,14.30
2018-10-18T21:42:37.354Z,14.30
2018-10-18T21:45:04.906Z,14.30
2018-10-18T21:47:32.516Z,14.30
2018-10-18T21:50:00.017Z,14.30
2018-10-18T21:52:27.533Z,14.30
2018-10-18T21:54:55.035Z,14.30
2018-10-18T21:57:23.596Z,14.30
2018-10-18T21:59:51.088Z,14.30
2018-10-18T22:02:18.624Z,14.20
2018-10-18T22:04:46.139Z,14.20
2018-10-18T22:07:13.646Z,14.20
2018-10-18T22:10:06.961Z,14.20
2018-10-18T22:12:34.651Z,14.20
2018-10-18T22:15:02.177Z,14.20
2018-10-18T22:17:29.683Z,14.20
2018-10-18T22:19:57.188Z,14.20
2018-10-18T22:22:24.697Z,14.20
2018-10-18T22:24:52.201Z,14.20
2018-10-18T22:27:19.715Z,14.20
2018-10-18T22:29:47.224Z,14.20
2018-10-18T22:32:14.733Z,14.20
2018-10-18T22:34:42.240Z,14.20
2018-10-18T22:37:09.788Z,14.20
2018-10-18T22:39:37.277Z,14.20
2018-10-18T22:42:05.116Z,14.20
2018-10-18T22:44:32.628Z,14.20
2018-10-18T22:47:00.166Z,14.20
2018-10-18T22:49:27.676Z,14.20
2018-10-18T22:51:55.174Z,14.20
2018-10-18T22:54:22.684Z,14.20
2018-10-18T22:56:50.205Z,14.20
2018-10-18T22:59:17.712Z,14.20
2018-10-18T23:01:45.356Z,14.20
2018-10-18T23:04:12.859Z,14.20
2018-10-18T23:06:40.371Z,14.20
2018-10-18T23:09:09.540Z,14.20
2018-10-18T23:11:37.120Z,14.20
2018-10-18T23:14:05.516Z,14.20
2018-10-18T23:16:33.048Z,14.20
2018-10-18T23:19:00.543Z,14.20
2018-10-18T23:21:28.057Z,14.20
2018-10-18T23:23:55.568Z,14.20
2018-10-18T23:26:23.140Z,14.20
2018-10-18T23:28:50.648Z,14.20
2018-10-18T23:31:18.152Z,14.20
2018-10-18T23:33:45.659Z,14.20
2018-10-18T23:36:13.173Z,14.30
2018-10-18T23:38:40.691Z,14.20
2018-10-18T23:41:08.207Z,14.30
2018-10-18T23:43:35.730Z,14.20
2018-10-18T23:46:03.298Z,14.30
2018-10-18T23:48:30.856Z,14.20
2018-10-18T23:50:58.395Z,14.20
2018-10-18T23:53:25.981Z,14.30
2018-10-18T23:55:53.562Z,14.30
2018-10-18T23:58:21.096Z,14.30
